createdAt,value
2022-09-17T00:02:14.286Z,10.30
2022-09-17T00:04:49.556Z,9.98
2022-09-17T00:07:21.986Z,13.40
2022-09-17T00:09:54.444Z,9.23
2022-09-17T00:12:27.193Z,9.73
2022-09-17T00:14:59.801Z,13.88
2022-09-17T00:17:32.583Z,8.85
2022-09-17T00:20:10.662Z,14.00
2022-09-17T00:22:43.221Z,7.13
2022-09-17T00:25:16.989Z,9.02
2022-09-17T00:27:49.536Z,10.45
2022-09-17T00:30:22.083Z,8.38
2022-09-17T00:32:58.295Z,8.85
2022-09-17T00:35:30.819Z,9.63
2022-09-17T00:38:03.216Z,9.25
2022-09-17T00:40:36.259Z,8.75
2022-09-17T00:43:12.569Z,10.95
2022-09-17T00:45:45.332Z,9.00
2022-09-17T00:48:17.965Z,6.57
2022-09-17T00:50:52.798Z,15.30
2022-09-17T00:53:25.849Z,8.88
2022-09-17T00:56:05.163Z,9.40
2022-09-17T00:58:41.402Z,11.50
2022-09-17T01:01:15.001Z,8.77
2022-09-17T01:03:48.149Z,6.47
2022-09-17T01:06:37.063Z,10.13
2022-09-17T01:09:20.650Z,10.30
2022-09-17T01:12:06.297Z,13.23
2022-09-17T01:15:10.485Z,11.13
2022-09-17T01:17:50.453Z,12.13
2022-09-17T01:20:33.690Z,14.90
2022-09-17T01:23:22.152Z,8.43
2022-09-17T01:26:11.891Z,10.30
2022-09-17T01:29:06.686Z,11.00
2022-09-17T01:32:05.443Z,11.32
2022-09-17T01:35:00.230Z,14.18
2022-09-17T01:38:04.391Z,11.48
2022-09-17T01:41:02.035Z,11.85
2022-09-17T01:43:43.332Z,13.35
2022-09-17T01:46:32.653Z,14.18
2022-09-17T01:49:08.002Z,16.90
2022-09-17T01:51:44.982Z,14.38
2022-09-17T01:54:21.824Z,11.25
2022-09-17T01:57:02.081Z,16.23
2022-09-17T01:59:41.487Z,15.07
2022-09-17T02:02:23.497Z,14.48
2022-09-17T02:05:05.864Z,13.07
2022-09-17T02:07:50.384Z,13.88
2022-09-17T02:10:29.966Z,14.93
2022-09-17T02:13:09.828Z,13.13
2022-09-17T02:15:49.292Z,12.68
2022-09-17T02:18:30.380Z,17.23
2022-09-17T02:21:11.608Z,13.52
2022-09-17T02:24:09.086Z,9.70
2022-09-17T02:26:53.105Z,10.65
2022-09-17T02:29:30.893Z,10.80
2022-09-17T02:32:04.018Z,13.60
2022-09-17T02:34:36.617Z,14.00
2022-09-17T02:37:09.532Z,10.15
2022-09-17T02:39:42.573Z,8.25
2022-09-17T02:42:37.055Z,8.20
2022-09-17T02:45:28.297Z,9.25
2022-09-17T02:48:19.864Z,8.88
2022-09-17T02:51:23.713Z,12.52
2022-09-17T02:54:01.015Z,6.68
2022-09-17T02:56:34.359Z,10.02
2022-09-17T02:59:14.712Z,9.18
2022-09-17T03:02:00.881Z,13.88
2022-09-17T03:04:35.482Z,9.00
2022-09-17T03:07:12.529Z,13.50
2022-09-17T03:09:45.317Z,16.88
2022-09-17T03:12:18.125Z,10.27
2022-09-17T03:14:50.539Z,15.05
2022-09-17T03:17:23.316Z,12.70
2022-09-17T03:19:55.777Z,13.25
2022-09-17T03:22:28.235Z,14.48
2022-09-17T03:25:00.838Z,11.88
2022-09-17T03:27:33.351Z,17.77
2022-09-17T03:30:07.272Z,15.38
2022-09-17T03:32:39.730Z,26.25
2022-09-17T03:35:12.365Z,27.95
2022-09-17T03:37:44.854Z,30.95
2022-09-17T03:40:17.529Z,15.60
2022-09-17T03:42:50.313Z,19.83
2022-09-17T03:45:22.998Z,12.82
2022-09-17T03:47:56.342Z,11.50
2022-09-17T03:50:29.088Z,9.00
2022-09-17T03:53:01.661Z,10.55
2022-09-17T03:55:34.235Z,12.93
2022-09-17T03:58:07.025Z,14.50
2022-09-17T04:00:40.315Z,11.20
2022-09-17T04:03:13.034Z,10.30
2022-09-17T04:05:45.911Z,8.55
2022-09-17T04:08:19.402Z,7.53
2022-09-17T04:10:52.163Z,8.35
2022-09-17T04:13:24.914Z,8.85
2022-09-17T04:15:57.561Z,5.80
2022-09-17T04:18:30.338Z,6.20
2022-09-17T04:21:02.910Z,5.03
2022-09-17T04:23:35.501Z,7.55
2022-09-17T04:26:08.135Z,5.72
2022-09-17T04:28:40.731Z,4.60
2022-09-17T04:31:13.448Z,5.88
2022-09-17T04:33:46.050Z,5.68
2022-09-17T04:36:18.715Z,4.82
2022-09-17T04:38:51.233Z,6.25
2022-09-17T04:41:23.835Z,4.00
2022-09-17T04:43:56.485Z,4.10
2022-09-17T04:46:29.207Z,5.80
2022-09-17T04:49:01.800Z,4.63
2022-09-17T04:51:34.297Z,3.78
2022-09-17T04:54:07.204Z,4.18
2022-09-17T04:56:39.962Z,4.53
2022-09-17T04:59:12.620Z,2.45
2022-09-17T05:01:45.410Z,4.38
2022-09-17T05:04:18.285Z,3.72
2022-09-17T05:06:51.119Z,3.97
2022-09-17T05:09:23.802Z,5.70
2022-09-17T05:11:56.250Z,3.95
2022-09-17T05:14:28.743Z,4.03
2022-09-17T05:17:01.208Z,5.00
2022-09-17T05:19:33.778Z,3.40
2022-09-17T05:22:06.259Z,3.28
2022-09-17T05:24:40.238Z,4.72
2022-09-17T05:27:12.927Z,4.05
2022-09-17T05:29:45.563Z,4.45
2022-09-17T05:32:18.270Z,4.15
2022-09-17T05:34:50.881Z,4.40
2022-09-17T05:37:23.411Z,3.40
2022-09-17T05:39:56.035Z,3.78
2022-09-17T05:42:29.175Z,3.50
2022-09-17T05:45:01.779Z,2.45
2022-09-17T05:47:35.649Z,4.15
2022-09-17T05:50:08.941Z,3.55
2022-09-17T05:52:41.417Z,3.08
2022-09-17T05:55:13.954Z,2.45
2022-09-17T05:57:46.794Z,2.08
2022-09-17T06:00:19.541Z,3.28
2022-09-17T06:02:56.773Z,2.50
2022-09-17T06:05:29.323Z,4.32
2022-09-17T06:08:02.209Z,2.67
2022-09-17T06:10:39.039Z,2.78
2022-09-17T06:13:11.603Z,3.08
2022-09-17T06:15:49.732Z,2.67
2022-09-17T06:18:22.503Z,4.13
2022-09-17T06:20:57.703Z,4.68
2022-09-17T06:23:35.477Z,2.50
2022-09-17T06:26:08.321Z,3.60
2022-09-17T06:28:41.930Z,3.65
2022-09-17T06:31:15.161Z,2.80
2022-09-17T06:33:48.573Z,2.20
2022-09-17T06:36:21.105Z,3.22
2022-09-17T06:38:53.615Z,2.22
2022-09-17T06:41:27.386Z,2.55
2022-09-17T06:44:02.383Z,3.25
2022-09-17T06:46:35.128Z,1.83
2022-09-17T06:49:07.690Z,2.33
2022-09-17T06:51:40.432Z,2.42
2022-09-17T06:54:13.068Z,2.55
2022-09-17T06:56:47.980Z,2.83
2022-09-17T06:59:20.425Z,1.33
2022-09-17T07:01:53.065Z,2.53
2022-09-17T07:04:25.591Z,2.00
2022-09-17T07:06:58.048Z,1.65
2022-09-17T07:09:30.826Z,6.70
2022-09-17T07:12:08.188Z,4.57
2022-09-17T07:14:40.981Z,8.27
2022-09-17T07:17:14.605Z,5.05
2022-09-17T07:19:47.125Z,2.67
2022-09-17T07:22:19.637Z,4.47
2022-09-17T07:24:52.076Z,3.35
2022-09-17T07:27:24.541Z,5.82
2022-09-17T07:29:57.588Z,2.78
2022-09-17T07:32:31.692Z,3.13
2022-09-17T07:35:04.704Z,3.75
2022-09-17T07:37:37.222Z,3.78
2022-09-17T07:40:10.182Z,3.25
2022-09-17T07:42:42.783Z,2.10
2022-09-17T07:45:15.620Z,2.17
2022-09-17T07:47:48.395Z,3.83
2022-09-17T07:50:21.262Z,3.58
2022-09-17T07:52:54.173Z,4.65
2022-09-17T07:55:27.328Z,2.92
2022-09-17T07:58:00.142Z,3.33
2022-09-17T08:00:33.208Z,4.28
2022-09-17T08:03:05.839Z,2.13
2022-09-17T08:05:38.524Z,2.97
2022-09-17T08:08:11.258Z,4.45
2022-09-17T08:10:43.752Z,2.25
2022-09-17T08:13:16.210Z,4.40
2022-09-17T08:15:48.744Z,4.53
2022-09-17T08:18:21.310Z,4.78
2022-09-17T08:20:58.930Z,11.00
2022-09-17T08:23:34.861Z,6.18
2022-09-17T08:26:12.390Z,8.48
2022-09-17T08:28:48.315Z,3.42
2022-09-17T08:31:21.815Z,5.18
2022-09-17T08:33:54.896Z,2.45
2022-09-17T08:36:28.064Z,3.33
2022-09-17T08:39:01.126Z,3.17
2022-09-17T08:41:49.159Z,2.70
2022-09-17T08:44:40.395Z,3.05
2022-09-17T08:47:15.954Z,1.33
2022-09-17T08:49:54.173Z,3.65
2022-09-17T08:52:54.356Z,1.27
2022-09-17T08:55:39.304Z,2.00
2022-09-17T08:58:22.985Z,2.10
2022-09-17T09:01:06.256Z,1.48
2022-09-17T09:04:03.804Z,2.28
2022-09-17T09:06:45.312Z,2.67
2022-09-17T09:09:22.593Z,3.25
2022-09-17T09:12:03.525Z,2.38
2022-09-17T09:14:49.720Z,4.47
2022-09-17T09:17:26.177Z,5.80
2022-09-17T09:19:58.816Z,2.80
2022-09-17T09:22:53.106Z,6.28
2022-09-17T09:25:31.304Z,2.53
2022-09-17T09:28:18.210Z,4.90
2022-09-17T09:31:06.488Z,6.93
2022-09-17T09:33:47.586Z,3.95
2022-09-17T09:36:22.318Z,6.82
2022-09-17T09:39:02.453Z,6.53
2022-09-17T09:41:44.130Z,6.90
2022-09-17T09:44:17.786Z,2.47
2022-09-17T09:46:51.123Z,4.03
2022-09-17T09:49:30.774Z,2.50
2022-09-17T09:52:22.683Z,1.85
2022-09-17T09:55:14.573Z,3.22
2022-09-17T09:57:52.838Z,2.15
2022-09-17T10:00:31.020Z,1.98
2022-09-17T10:03:21.891Z,3.83
2022-09-17T10:05:58.984Z,1.75
2022-09-17T10:08:36.238Z,1.48
2022-09-17T10:11:13.669Z,2.55
2022-09-17T10:13:46.381Z,1.80
2022-09-17T10:16:19.847Z,1.45
2022-09-17T10:19:15.000Z,1.02
2022-09-17T10:21:47.542Z,1.65
2022-09-17T10:24:35.313Z,1.75
2022-09-17T10:27:15.843Z,1.70
2022-09-17T10:29:53.281Z,1.20
2022-09-17T10:32:26.156Z,1.70
2022-09-17T10:35:04.743Z,1.42
2022-09-17T10:37:47.870Z,2.28
2022-09-17T10:40:21.317Z,2.20
2022-09-17T10:43:18.621Z,1.92
2022-09-17T10:46:01.016Z,1.35
2022-09-17T10:48:39.204Z,1.73
2022-09-17T10:51:21.087Z,2.25
2022-09-17T10:53:58.588Z,2.08
2022-09-17T10:56:37.315Z,1.17
2022-09-17T10:59:11.065Z,3.28
2022-09-17T11:01:53.518Z,1.02
2022-09-17T11:04:42.161Z,1.48
2022-09-17T11:07:22.718Z,1.27
2022-09-17T11:10:11.637Z,1.70
2022-09-17T11:13:08.341Z,1.05
2022-09-17T11:15:59.809Z,1.33
2022-09-17T11:19:03.875Z,2.60
2022-09-17T11:21:38.550Z,1.10
2022-09-17T11:24:46.881Z,1.30
2022-09-17T11:27:34.924Z,1.30
2022-09-17T11:30:18.929Z,1.17
2022-09-17T11:33:10.154Z,1.65
2022-09-17T11:35:49.560Z,2.15
2022-09-17T11:38:28.013Z,1.00
2022-09-17T11:41:02.339Z,0.80
2022-09-17T11:43:39.021Z,1.55
2022-09-17T11:46:16.977Z,1.30
2022-09-17T11:49:01.155Z,1.02
2022-09-17T11:51:40.303Z,1.92
2022-09-17T11:54:30.074Z,1.70
2022-09-17T11:57:07.708Z,1.15
2022-09-17T12:00:01.570Z,1.50
2022-09-17T12:02:54.391Z,0.57
2022-09-17T12:05:27.769Z,1.58
2022-09-17T12:08:21.006Z,1.55
2022-09-17T12:11:17.316Z,0.80
2022-09-17T12:13:53.464Z,0.60
2022-09-17T12:16:36.962Z,1.42
2022-09-17T12:19:32.265Z,1.27
2022-09-17T12:22:18.377Z,1.10
2022-09-17T12:24:53.679Z,2.53
2022-09-17T12:27:57.663Z,1.38
2022-09-17T12:30:39.358Z,0.90
2022-09-17T12:33:22.553Z,1.77
2022-09-17T12:36:08.419Z,1.35
2022-09-17T12:41:40.668Z,2.45
2022-09-17T12:44:37.186Z,1.42
2022-09-17T12:47:38.633Z,0.73
2022-09-17T12:50:34.301Z,1.13
2022-09-17T12:53:24.152Z,0.65
2022-09-17T12:56:01.785Z,1.58
2022-09-17T12:58:51.136Z,1.25
2022-09-17T13:01:54.491Z,1.48
2022-09-17T13:05:00.031Z,0.82
2022-09-17T13:07:49.234Z,7.25
2022-09-17T13:10:44.638Z,0.90
2022-09-17T13:13:36.946Z,1.60
2022-09-17T13:16:14.371Z,1.02
2022-09-17T13:19:16.179Z,1.48
2022-09-17T13:22:21.110Z,1.73
2022-09-17T13:25:12.217Z,2.88
2022-09-17T13:27:46.956Z,0.65
2022-09-17T13:30:21.841Z,1.55
2022-09-17T13:32:55.658Z,2.38
2022-09-17T13:35:29.285Z,1.30
2022-09-17T13:38:02.782Z,1.38
2022-09-17T13:40:37.590Z,0.93
2022-09-17T13:43:16.156Z,1.80
2022-09-17T13:46:09.264Z,3.05
2022-09-17T13:48:49.668Z,2.80
2022-09-17T13:51:38.053Z,2.67
2022-09-17T13:54:11.722Z,2.20
2022-09-17T13:56:49.103Z,1.02
2022-09-17T13:59:26.614Z,2.47
2022-09-17T14:02:01.789Z,2.20
2022-09-17T14:04:48.006Z,3.63
2022-09-17T14:07:26.749Z,1.27
2022-09-17T14:10:02.512Z,1.85
2022-09-17T14:12:45.542Z,1.58
2022-09-17T14:15:36.061Z,2.80
2022-09-17T14:18:39.415Z,1.20
2022-09-17T14:21:27.098Z,1.75
2022-09-17T14:24:14.925Z,1.00
2022-09-17T14:27:10.340Z,0.85
2022-09-17T14:29:43.911Z,0.88
2022-09-17T14:32:26.815Z,1.25
2022-09-17T14:35:03.846Z,1.45
2022-09-17T14:37:37.005Z,1.75
2022-09-17T14:40:14.768Z,1.85
2022-09-17T14:42:51.151Z,1.55
2022-09-17T14:45:34.285Z,1.88
2022-09-17T14:48:37.416Z,1.35
2022-09-17T14:51:27.381Z,0.98
2022-09-17T14:54:14.954Z,1.15
2022-09-17T14:56:51.218Z,2.00
2022-09-17T14:59:42.041Z,0.90
2022-09-17T15:02:26.132Z,1.42
2022-09-17T15:05:00.541Z,4.70
2022-09-17T15:07:33.550Z,2.33
2022-09-17T15:10:09.575Z,0.90
2022-09-17T15:12:45.238Z,1.95
2022-09-17T15:15:21.685Z,1.60
2022-09-17T15:17:56.033Z,1.13
2022-09-17T15:20:31.513Z,1.05
2022-09-17T15:25:38.416Z,1.20
2022-09-17T15:28:35.384Z,0.73
2022-09-17T15:31:17.282Z,1.83
2022-09-17T15:33:50.396Z,1.85
2022-09-17T15:36:30.410Z,2.10
2022-09-17T15:39:31.524Z,2.60
2022-09-17T15:42:05.105Z,1.63
2022-09-17T15:44:38.582Z,1.27
2022-09-17T15:47:41.499Z,1.85
2022-09-17T15:50:17.313Z,1.17
2022-09-17T15:52:50.986Z,2.50
2022-09-17T15:55:34.463Z,1.85
2022-09-17T15:58:22.229Z,1.80
2022-09-17T16:01:18.511Z,1.52
2022-09-17T16:04:08.721Z,1.48
2022-09-17T16:06:50.595Z,4.65
2022-09-17T16:09:39.936Z,1.38
2022-09-17T16:12:15.914Z,2.40
2022-09-17T16:14:51.456Z,2.25
2022-09-17T16:17:29.209Z,1.42
2022-09-17T16:20:10.369Z,2.78
2022-09-17T16:22:44.715Z,1.55
2022-09-17T16:25:19.545Z,3.03
2022-09-17T16:27:56.613Z,2.35
2022-09-17T16:30:29.155Z,2.80
2022-09-17T16:33:04.332Z,2.65
2022-09-17T16:35:38.850Z,1.92
2022-09-17T16:38:13.358Z,4.77
2022-09-17T16:40:48.043Z,3.20
2022-09-17T16:43:20.721Z,2.97
2022-09-17T16:46:02.942Z,6.22
2022-09-17T16:48:35.755Z,3.20
2022-09-17T16:51:10.665Z,3.95
2022-09-17T16:56:16.598Z,3.28
2022-09-17T16:58:49.131Z,3.67
2022-09-17T17:01:22.129Z,3.58
2022-09-17T17:03:56.092Z,3.92
2022-09-17T17:06:28.640Z,1.80
2022-09-17T17:09:02.134Z,2.72
2022-09-17T17:11:34.796Z,2.55
2022-09-17T17:14:10.466Z,2.35
2022-09-17T17:16:46.896Z,5.43
2022-09-17T17:19:19.387Z,2.83
2022-09-17T17:21:52.998Z,3.17
2022-09-17T17:24:26.338Z,2.95
2022-09-17T17:26:58.969Z,7.90
2022-09-17T17:29:31.578Z,2.75
2022-09-17T17:32:05.581Z,3.03
2022-09-17T17:34:38.226Z,5.88
2022-09-17T17:37:10.790Z,3.78
2022-09-17T17:39:43.485Z,5.20
2022-09-17T17:42:16.159Z,1.77
2022-09-17T17:44:48.923Z,4.20
2022-09-17T17:47:21.627Z,1.85
2022-09-17T17:49:54.275Z,3.40
2022-09-17T17:52:27.510Z,2.85
2022-09-17T17:55:00.167Z,1.85
2022-09-17T17:57:32.793Z,4.35
2022-09-17T18:00:06.084Z,4.78
2022-09-17T18:02:44.596Z,3.33
2022-09-17T18:05:17.561Z,4.60
2022-09-17T18:07:50.373Z,3.03
2022-09-17T18:10:23.486Z,2.85
2022-09-17T18:12:56.006Z,2.42
2022-09-17T18:15:28.520Z,2.78
2022-09-17T18:18:01.115Z,1.60
2022-09-17T18:20:33.865Z,1.73
2022-09-17T18:23:07.167Z,2.15
2022-09-17T18:25:40.052Z,2.28
2022-09-17T18:28:12.618Z,3.50
2022-09-17T18:30:45.433Z,4.53
2022-09-17T18:33:20.833Z,4.22
2022-09-17T18:38:30.536Z,3.17
2022-09-17T18:41:05.931Z,4.18
2022-09-17T18:43:38.565Z,5.28
2022-09-17T18:46:11.437Z,3.05
2022-09-17T18:48:44.947Z,4.45
2022-09-17T18:51:17.580Z,3.20
2022-09-17T18:53:51.801Z,3.47
2022-09-17T18:56:28.643Z,1.85
2022-09-17T18:59:07.898Z,3.33
2022-09-17T19:01:41.321Z,4.20
2022-09-17T19:04:14.051Z,3.67
2022-09-17T19:06:46.720Z,3.03
2022-09-17T19:09:20.004Z,3.65
2022-09-17T19:11:52.641Z,2.53
2022-09-17T19:14:25.156Z,3.20
2022-09-17T19:16:57.825Z,2.00
2022-09-17T19:19:30.758Z,4.53
2022-09-17T19:22:03.304Z,3.55
2022-09-17T19:24:36.275Z,2.65
2022-09-17T19:27:08.879Z,1.70
2022-09-17T19:29:41.697Z,2.25
2022-09-17T19:32:14.538Z,2.55
2022-09-17T19:34:46.968Z,1.80
2022-09-17T19:37:19.555Z,2.42
2022-09-17T19:39:52.209Z,2.50
2022-09-17T19:42:26.540Z,4.40
2022-09-17T19:44:59.236Z,3.03
2022-09-17T19:47:33.995Z,1.58
2022-09-17T19:50:07.322Z,2.40
2022-09-17T19:52:41.628Z,1.65
2022-09-17T19:55:14.831Z,1.65
2022-09-17T19:57:47.500Z,1.90
2022-09-17T20:00:20.331Z,1.77
2022-09-17T20:02:53.258Z,1.83
2022-09-17T20:05:26.115Z,1.80
2022-09-17T20:07:58.865Z,1.42
2022-09-17T20:10:36.676Z,2.20
2022-09-17T20:13:09.339Z,1.60
2022-09-17T20:15:41.988Z,3.63
2022-09-17T20:18:17.735Z,1.67
2022-09-17T20:20:52.568Z,1.52
2022-09-17T20:23:29.674Z,3.88
2022-09-17T20:26:02.517Z,1.60
2022-09-17T20:28:35.629Z,2.42
2022-09-17T20:31:13.834Z,1.92
2022-09-17T20:33:47.368Z,2.83
2022-09-17T20:36:22.588Z,2.40
2022-09-17T20:41:48.716Z,5.57
2022-09-17T20:44:21.382Z,2.63
2022-09-17T20:46:55.444Z,4.45
2022-09-17T20:49:28.325Z,0.68
2022-09-17T20:52:01.002Z,2.40
2022-09-17T20:54:33.800Z,1.33
2022-09-17T20:57:06.560Z,3.95
2022-09-17T20:59:52.527Z,2.22
2022-09-17T21:04:58.357Z,1.80
2022-09-17T21:07:33.573Z,1.73
2022-09-17T21:10:07.059Z,3.28
2022-09-17T21:12:39.767Z,1.92
2022-09-17T21:15:12.439Z,3.17
2022-09-17T21:17:45.642Z,1.13
2022-09-17T21:20:18.238Z,1.88
2022-09-17T21:22:50.806Z,1.00
2022-09-17T21:25:23.448Z,1.35
2022-09-17T21:27:56.018Z,1.08
2022-09-17T21:30:29.730Z,1.35
2022-09-17T21:33:02.214Z,2.38
2022-09-17T21:35:34.776Z,1.80
2022-09-17T21:38:07.275Z,1.20
2022-09-17T21:40:42.295Z,1.33
2022-09-17T21:43:16.568Z,1.92
2022-09-17T21:46:06.479Z,2.33
2022-09-17T21:48:49.366Z,2.58
2022-09-17T21:51:25.328Z,1.38
2022-09-17T21:54:01.679Z,1.75
2022-09-17T21:56:35.199Z,2.17
2022-09-17T21:59:11.203Z,1.85
2022-09-17T22:01:46.862Z,1.92
2022-09-17T22:04:21.463Z,2.25
2022-09-17T22:06:55.290Z,1.60
2022-09-17T22:09:29.923Z,2.05
2022-09-17T22:12:03.050Z,2.10
2022-09-17T22:14:35.547Z,2.53
2022-09-17T22:17:08.192Z,2.13
2022-09-17T22:19:40.837Z,2.60
2022-09-17T22:22:13.381Z,2.50
2022-09-17T22:24:45.919Z,2.70
2022-09-17T22:27:18.579Z,2.05
2022-09-17T22:29:51.168Z,1.55
2022-09-17T22:32:23.863Z,2.50
2022-09-17T22:34:56.534Z,1.60
2022-09-17T22:37:29.705Z,0.75
2022-09-17T22:40:02.620Z,1.25
2022-09-17T22:42:35.312Z,1.60
2022-09-17T22:45:08.513Z,1.80
2022-09-17T22:47:41.525Z,1.70
2022-09-17T22:50:14.203Z,1.70
2022-09-17T22:52:48.723Z,7.07
2022-09-17T22:55:21.317Z,0.87
2022-09-17T22:57:53.887Z,1.33
2022-09-17T23:00:26.418Z,2.58
2022-09-17T23:02:59.009Z,0.85
2022-09-17T23:05:31.595Z,2.88
2022-09-17T23:08:04.246Z,2.25
2022-09-17T23:10:36.958Z,1.73
2022-09-17T23:13:10.528Z,2.60
2022-09-17T23:15:43.149Z,1.98
2022-09-17T23:18:16.225Z,1.67
2022-09-17T23:21:07.562Z,2.65
2022-09-17T23:23:42.235Z,4.10
2022-09-17T23:26:18.487Z,2.83
2022-09-17T23:28:51.261Z,1.70
2022-09-17T23:31:26.471Z,1.02
2022-09-17T23:33:59.778Z,0.95
2022-09-17T23:36:35.877Z,0.88
2022-09-17T23:39:11.191Z,1.77
2022-09-17T23:41:45.859Z,2.20
2022-09-17T23:44:18.512Z,1.23
2022-09-17T23:46:51.281Z,2.38
2022-09-17T23:49:23.955Z,1.25
2022-09-17T23:51:56.567Z,1.20
2022-09-17T23:54:29.330Z,1.80
2022-09-17T23:57:01.821Z,3.30
2022-09-17T23:59:34.417Z,1.63
